Tiempo atmosférico en la estación meteorológica de Cañamero, Cáceres (590 m.)



Fecha
DESCASC
Temp. máxima en grados centígrados (hora)
DESCASC
Temp. mínima en grados centígrados (hora)
DESCASC
Temp. media en grados centígrados
DESCASC
Racha de viento máxima en m/sg (hora)
DESCASC
Velocidad máxima media en intervalos de 10 minutos(hora)
DESCASC
Precipitaciones diarias en mm
DESCASC
Precipitaciones de 00:00 a 06:00 en mm
DESCASC
Precipitaciones de 06:00 a 12:00 en mm
DESCASC
Precipitaciones de 12:00 a 18:00 en mm
DESCASC
Precipitaciones de 18:00 a 24:00 en mm
DESCASC
21-01-2021 10.5 (16:20) 8.4 (09:10) 9.4 12.22 (15:30) 8.06 (14:50) 17.6 1.6 1.4 4 10.6
20-01-2021 11.4 (15:10) 6.7 (01:20) 9 11.67 (16:50) 7.78 (22:30) 18.2 0 13.6 1.4 3.2
19-01-2021 10.4 (12:20) 3.5 (08:00) 6.9 6.11 (14:40) 4.17 (14:40) 0 0 0 0 0
18-01-2021 15.1 (15:20) 4.8 (08:10) 10 6.11 (08:00) 3.06 (07:20) 0 0 0 0 0
17-01-2021 13.8 (16:20) 3.5 (00:00) 8.7 4.44 (23:10) 2.78 (09:10) 0 0 0 0 0
16-01-2021 13.7 (16:20) 0.5 (00:00) 7.1 3.06 (13:10) 2.22 (17:30) 0 0 0 0 0
15-01-2021 11.8 (17:00) 0.5 (00:00) 6.2 3.89 (05:30) 2.5 (00:10) 0 0 0 0 0
14-01-2021 9.4 (16:20) -1.3 (07:40) 4 3.61 (14:00) 2.22 (23:59) 0 0 0 0 0
13-01-2021 9.2 (15:50) -2.4 (-00:0) 3.4 3.33 (14:00) 1.94 (14:00) 0 0 0 0 0
12-01-2021 9.1 (15:20) -3.7 (-00:0) 2.7 3.61 (16:00) 2.5 (15:40) 0 0 0 0 0
11-01-2021 8 (15:30) -1.3 (-00:0) 3.4 6.39 (14:10) 3.33 (14:10) 0 0 0 0 0
10-01-2021 6.9 (14:00) 0.1 (07:10) 3.5 9.44 (16:00) 5 (14:40) 0.2 0 0 0.2 0
09-01-2021 2.1 (15:00) 0.2 (00:00) 1.1 9.17 (01:10) 5 (00:40) 5.4 1.8 1.6 1.8 0.2
08-01-2021 2.7 (08:50) 0.6 (00:00) 1.7 10.83 (15:20) 5.83 (15:00) 16.8 0 1.2 8 7.6
07-01-2021 4.6 (16:10) 1 (00:00) 2.8 9.17 (13:00) 4.72 (16:50) 0.2 0 0.2 0 0
06-01-2021 6.9 (14:50) -1.8 (-00:0) 2.6 6.94 (15:00) 3.06 (22:10) 0 0 0 0 0
05-01-2021 6.9 (16:00) -2.2 (-00:0) 2.4 5 (12:10) 2.78 (12:20) 0.2 0 0.2 0 0
04-01-2021 3.5 (17:20) -1.2 (-00:0) 1.1 4.17 (03:40) 3.06 (13:20) 0 0 0 0 0
03-01-2021 6.3 (15:30) -3.7 (-00:0) 1.3 8.06 (15:30) 5.56 (16:00) 0 0 0 0 0
02-01-2021 6.6 (16:00) -1.5 (-00:0) 2.5 10 (00:10) 5.28 (00:10) 0 0 0 0 0
01-01-2021 7.1 (14:40) 2 (00:00) 4.5 14.72 (06:10) 6.11 (06:10) 0.2 0.2 0 0 0
31-12-2020 6.4 (21:10) -2.2 (-00:0) 2.1 10 (22:50) 6.94 (22:40) 4.8 0 0 0.4 4.4
30-12-2020 7.9 (16:10) -1.4 (-00:0) 3.3 7.22 (03:50) 3.89 (03:00) 0 0 0 0 0
29-12-2020 8.9 (16:00) 1.6 (00:00) 5.2 9.17 (14:50) 5.83 (15:00) 0 0 0 0 0
28-12-2020 9.5 (14:50) 3.9 (00:00) 6.7 18.33 (03:30) 12.22 (03:30) 3.4 2.6 0.8 0 0
27-12-2020 6.6 (14:00) -2.2 (-00:0) 2.2 10.28 (23:59) 6.39 (21:10) 0 0 0 0 0
26-12-2020 9.8 (15:20) -0.1 (00:00) 4.9 7.22 (03:10) 3.61 (03:00) 0 0 0 0 0

Gráficas

Temp. máximas Temp. mínimas Temp. medias Precipitaciones Rachas de viento máximas Velocidades máximas media en intervalos de 10 minutos

Datos horarios

Fecha y hora oficial Temperatura (ºC) Velocidad del viento (km/h) Dirección del viento Racha (km/h) Dirección de racha Precipitación (mm) Presión (hPa) Tendencia (hPa) Humedad (%)
2021-01-24 23:00:00 8.9 13 Oeste 21 Oeste 0 -- -- 97
2021-01-24 22:00:00 9.1 14 Oeste 26 Oeste 0 -- -- 96
2021-01-24 21:00:00 9.4 18 Oeste 24 Oeste 0 -- -- 93
2021-01-24 20:00:00 9.6 15 Oeste 25 Oeste 0 -- -- 87
2021-01-24 19:00:00 9.9 15 Oeste 29 Oeste 0 -- -- 83
2021-01-24 18:00:00 10.4 17 Oeste 38 Oeste 0 -- -- 79
2021-01-24 17:00:00 11.3 21 Oeste 35 Oeste 0 -- -- 72
2021-01-24 16:00:00 11.7 18 Oeste 34 Oeste 0 -- -- 70
2021-01-24 15:00:00 11 21 Oeste 31 Oeste 0 -- -- 73
2021-01-24 14:00:00 10.7 17 Oeste 31 Oeste 0 -- -- 79
2021-01-24 13:00:00 10.5 19 Oeste 27 Oeste 0 -- -- 79
2021-01-24 12:00:00 10.1 17 Oeste 27 Oeste 0 -- -- 88
2021-01-24 11:00:00 8.8 20 Oeste 28 Oeste 0 -- -- 93
2021-01-24 10:00:00 7.9 18 Sudoeste 27 Oeste 0 -- -- 96
2021-01-24 09:00:00 7.7 20 Oeste 33 Oeste 0 -- -- 95
2021-01-24 08:00:00 8 20 Oeste 35 Sudoeste 0 -- -- 94
2021-01-24 07:00:00 7.9 27 Sudoeste 42 Sudoeste 0 -- -- 96
2021-01-24 06:00:00 7.9 19 Sudoeste 36 Oeste 0 -- -- 95
2021-01-24 05:00:00 8.5 20 Oeste 38 Oeste 0 -- -- 92
2021-01-24 04:00:00 9.1 25 Oeste 45 Oeste 0 -- -- 94
2021-01-24 03:00:00 9.4 24 Oeste 41 Oeste 0 -- -- 100
2021-01-24 02:00:00 11.1 23 Oeste 51 Oeste 0.6 -- -- 100
2021-01-24 01:00:00 11.1 34 Oeste 55 Oeste 0.4 -- -- 100
2021-01-24 00:00:00 11.1 37 Oeste 53 Oeste 1 -- -- 100
2021-01-23 23:00:00 11.1 37 Oeste 56 Oeste 1.6 -- -- 100
2021-01-23 22:00:00 11 35 Oeste 58 Oeste 1.8 -- -- 100
2021-01-23 21:00:00 11 33 Oeste 48 Sudoeste 2.4 -- -- 100
2021-01-23 20:00:00 10.7 32 Sudoeste 54 Oeste 1.2 -- -- 100
2021-01-23 19:00:00 9.8 20 Oeste 33 Oeste 2.8 -- -- 100
2021-01-23 18:00:00 9.2 21 Oeste 34 Sudoeste 3.2 -- -- 100
2021-01-23 17:00:00 8.8 21 Sudoeste 39 Sudoeste 4 -- -- 100
2021-01-23 16:00:00 8.3 26 Sudoeste 43 Sudoeste 0.8 -- -- 100
2021-01-23 15:00:00 8.4 27 Sudoeste 47 Sudoeste 1.2 -- -- 100
2021-01-23 14:00:00 8.1 23 Sudoeste 35 Sudoeste 1.6 -- -- 100
2021-01-23 13:00:00 7.6 20 Sudoeste 34 Sudoeste 0.6 -- -- 100
2021-01-23 12:00:00 7.2 20 Oeste 36 Oeste 0 -- -- 100
2021-01-23 11:00:00 6.7 23 Oeste 37 Oeste 0 -- -- 100
2021-01-23 10:00:00 6 18 Oeste 28 Oeste 0 -- -- 100
2021-01-23 09:00:00 5.9 18 Oeste 30 Oeste 0.2 -- -- 100
2021-01-23 08:00:00 5.7 12 Oeste 22 Sudoeste 0 -- -- 100
2021-01-23 07:00:00 5.5 15 Oeste 27 Sudoeste 0 -- -- 100
2021-01-23 06:00:00 5.7 15 Oeste 30 Oeste 0 -- -- 100
2021-01-23 05:00:00 5.7 17 Oeste 28 Oeste 0 -- -- 100
2021-01-23 04:00:00 5.4 18 Sudoeste 27 Sudoeste 0 -- -- 99
2021-01-23 03:00:00 5.3 14 Oeste 24 Oeste 0 -- -- 99
2021-01-23 02:00:00 4.4 8 Sudoeste 18 Oeste 0 -- -- 98
2021-01-23 01:00:00 4.8 12 Sudoeste 19 Oeste 0 -- -- 97
2021-01-23 00:00:00 5.5 12 Sudoeste 19 Oeste 0 -- -- 95
2021-01-22 23:00:00 5.8 10 Sudoeste 20 Sudoeste 0 -- -- 93
2021-01-22 22:00:00 5.2 6 Sudoeste 21 Sudoeste 0 -- -- 91
2021-01-22 21:00:00 5.9 11 Sudoeste 21 Sudoeste 0 -- -- 88
2021-01-22 20:00:00 6.7 14 Sudoeste 33 Oeste 0 -- -- 84
2021-01-22 19:00:00 8.1 17 Oeste 37 Oeste 0 -- -- 77
2021-01-22 18:00:00 8.6 24 Oeste 46 Oeste 0 -- -- 75
2021-01-22 17:00:00 9.8 22 Oeste 49 Oeste 0 -- -- 71
2021-01-22 16:00:00 9.2 21 Oeste 55 Noroeste 0.2 -- -- 79
2021-01-22 15:00:00 10.1 34 Oeste 56 Oeste 0.2 -- -- 70
2021-01-22 14:00:00 7.1 28 Oeste 52 Oeste 1 -- -- 90
2021-01-22 13:00:00 9.3 26 Oeste 53 Oeste 0 -- -- 82
2021-01-22 12:00:00 8.8 24 Oeste 41 Oeste 0 -- -- 87
2021-01-22 11:00:00 8.5 25 Oeste 43 Oeste 0 -- -- 86
2021-01-22 10:00:00 8 24 Oeste 48 Oeste 0 -- -- 92
2021-01-22 09:00:00 8.3 26 Oeste 46 Oeste 0.2 -- -- 87
2021-01-22 08:00:00 8.4 23 Oeste 50 Oeste 1.4 -- -- 92
2021-01-22 07:00:00 9.3 28 Oeste 64 Oeste 0 -- -- 94
2021-01-22 06:00:00 9.9 41 Oeste 71 Sudoeste 0.2 -- -- 99
2021-01-22 05:00:00 10.4 32 Sudoeste 59 Oeste 0 -- -- 100
2021-01-22 04:00:00 11 33 Oeste 63 Sudoeste 0 -- -- 100
2021-01-22 03:00:00 11.3 36 Sudoeste 55 Oeste 0.6 -- -- 100
2021-01-22 02:00:00 11 27 Sudoeste 54 Sudoeste 1 -- -- 100
2021-01-22 01:00:00 10.6 24 Sudoeste 45 Sudoeste 0.8 -- -- 100
2021-01-22 00:00:00 10 23 Sudoeste 36 Sudoeste 2.6 -- -- 100
2021-01-21 23:00:00 9.7 17 Sudoeste 39 Sudoeste 2.2 -- -- 100
2021-01-21 22:00:00 9.8 13 Sudoeste 25 Sudoeste 3.2 -- -- 100
2021-01-21 21:00:00 9.8 14 Sudoeste 30 Sudoeste 0.6 -- -- 100
2021-01-21 20:00:00 10.1 18 Sudoeste 31 Sudoeste 0.6 -- -- 100
2021-01-21 19:00:00 10.1 19 Oeste 44 Sudoeste 1.4 -- -- 100
2021-01-21 18:00:00 10.4 21 Sudoeste 37 Sudoeste 1 -- -- 100
2021-01-21 17:00:00 10.5 21 Sudoeste 39 Oeste 1.6 -- -- 100
2021-01-21 16:00:00 10.4 25 Oeste 44 Sudoeste 0.6 -- -- 100
2021-01-21 15:00:00 10.1 28 Sudoeste 42 Sudoeste 0.2 -- -- 100
2021-01-21 14:00:00 9.7 27 Sudoeste 40 Sudoeste 0.4 -- -- 100
2021-01-21 13:00:00 9.3 19 Sudoeste 38 Oeste 0.2 -- -- 100
2021-01-21 12:00:00 9.2 26 Sudoeste 41 Sudoeste 0.6 -- -- 100
2021-01-21 11:00:00 9 23 Sudoeste 35 Sudoeste 0.2 -- -- 100
2021-01-21 10:00:00 8.6 21 Oeste 35 Oeste 0 -- -- 100
2021-01-21 09:00:00 8.5 20 Oeste 30 Oeste 0 -- -- 100
2021-01-21 08:00:00 8.6 18 Oeste 32 Sudoeste 0 -- -- 100
2021-01-21 07:00:00 8.7 14 Oeste 28 Oeste 0.6 -- -- 100
2021-01-21 06:00:00 8.7 21 Oeste 36 Sudoeste 0.4 -- -- 100
2021-01-21 05:00:00 8.9 18 Oeste 29 Sudoeste 0.2 -- -- 100
2021-01-21 04:00:00 8.9 19 Oeste 37 Sudoeste 0.2 -- -- 100
2021-01-21 03:00:00 8.9 24 Sudoeste 35 Oeste 0.2 -- -- 100
2021-01-21 02:00:00 8.8 20 Sudoeste 31 Sudoeste 0.6 -- -- 100
2021-01-21 01:00:00 8.7 19 Sudoeste 31 Oeste 0 -- -- 99
2021-01-21 00:00:00 8.8 19 Sudoeste 33 Sudoeste 0.2 -- -- 99
2021-01-20 23:00:00 8.9 24 Sudoeste 42 Oeste 0 -- -- 99
2021-01-20 22:00:00 9 23 Oeste 37 Oeste 1.2 -- -- 99
2021-01-20 21:00:00 9 21 Sudoeste 33 Oeste 0 -- -- 99
2021-01-20 20:00:00 9.4 22 Oeste 39 Sudoeste 1.4 -- -- 98
2021-01-20 19:00:00 9.4 24 Sudoeste 39 Sudoeste 0.4 -- -- 97
2021-01-20 18:00:00 9.5 15 Sudoeste 31 Oeste 0.4 -- -- 95
2021-01-20 17:00:00 10 22 Sudoeste 42 Oeste 0.4 -- -- 92
2021-01-20 16:00:00 10.8 14 Oeste 34 Sudoeste 0.6 -- -- 92
2021-01-20 15:00:00 11.3 19 Sudoeste 32 Sudoeste 0 -- -- 88
2021-01-20 14:00:00 10.4 13 Sur 27 Sudoeste 0 -- -- 91
2021-01-20 13:00:00 9.6 15 Sudoeste 29 Sudoeste 0 -- -- 93
2021-01-20 12:00:00 9.1 10 Sur 31 Sur 0 -- -- 97
2021-01-20 11:00:00 8.3 13 Sur 27 Sudeste 0.2 -- -- 98
2021-01-20 10:00:00 7.5 8 Sudeste 23 Sudoeste 3.6 -- -- 98
2021-01-20 09:00:00 7.1 10 Sur 26 Sudoeste 5.8 -- -- 97
2021-01-20 08:00:00 7 9 Sur 21 Sur 3.8 -- -- 95
2021-01-20 07:00:00 7.1 9 Sudeste 20 Sudeste 0.2 -- -- 92
2021-01-20 06:00:00 7.4 9 Sudeste 23 Sudeste 0 -- -- 87
2021-01-20 05:00:00 7.2 8 Sudeste 19 Sudeste 0 -- -- 88
2021-01-20 04:00:00 7 6 Sur 15 Sur 0 -- -- 86
2021-01-20 03:00:00 6.8 5 Sudeste 12 Sudeste 0 -- -- 85
2021-01-20 02:00:00 6.9 5 Sudeste 12 Sudeste 0 -- -- 85
2021-01-20 01:00:00 6.8 4 Sudeste 8 Este 0 -- -- 86
2021-01-20 00:00:00 7 3 Sudeste 12 Sur 0 -- -- 86
2021-01-19 23:00:00 7.1 5 Sur 12 Sudoeste 0 -- -- 84
2021-01-19 22:00:00 7.1 3 Sudeste 6 Sudeste 0 -- -- 84
2021-01-19 21:00:00 6.9 0 Calma 6 Nordeste 0 -- -- 82
2021-01-19 20:00:00 6.6 3 Nordeste 5 Nordeste 0 -- -- 83
2021-01-19 19:00:00 5.7 3 Nordeste 4 Nordeste 0 -- -- 84
2021-01-19 18:00:00 8.5 0 Calma 7 Sur 0 -- -- 72
2021-01-19 17:00:00 9.7 2 Oeste 17 Sudoeste 0 -- -- 65
2021-01-19 16:00:00 9.8 6 Sur 16 Oeste 0 -- -- 72
2021-01-19 15:00:00 8.5 13 Oeste 22 Oeste 0 -- -- 80
2021-01-19 14:00:00 9.8 12 Sudoeste 20 Sudoeste 0 -- -- 73
2021-01-19 13:00:00 10.1 11 Sudoeste 21 Sudoeste 0 -- -- 70
2021-01-19 12:00:00 9.9 8 Sudoeste 13 Sur 0 -- -- 68
2021-01-19 11:00:00 8.1 5 Sudeste 11 Este 0 -- -- 71
2021-01-19 10:00:00 4.9 2 Este 8 Este 0 -- -- 83
2021-01-19 09:00:00 3.5 3 Este 11 Este 0 -- -- 86
2021-01-19 08:00:00 3.5 5 Este 12 Nordeste 0 -- -- 86
2021-01-19 07:00:00 4.1 4 Este 9 Este 0 -- -- 83
2021-01-19 06:00:00 5 6 Este 14 Este 0 -- -- 79
2021-01-19 05:00:00 5.8 10 Este 15 Este 0 -- -- 76
2021-01-19 04:00:00 6.2 8 Este 17 Este 0 -- -- 75
2021-01-19 03:00:00 6.5 10 Este 18 Este 0 -- -- 74
2021-01-19 02:00:00 7.1 10 Este 18 Este 0 -- -- 72
2021-01-19 01:00:00 7.2 7 Este 16 Nordeste 0 -- -- 71
2021-01-19 00:00:00 7.5 6 Este 15 Nordeste 0 -- -- 70
2021-01-18 23:00:00 7.8 8 Este 14 Nordeste 0 -- -- 68
2021-01-18 22:00:00 7.6 3 Este 10 Este 0 -- -- 67
2021-01-18 21:00:00 7.7 0 Calma 5 Nordeste 0 -- -- 65
2021-01-18 20:00:00 8.8 0 Calma 7 Este 0 -- -- 60
2021-01-18 19:00:00 10.2 0 Calma 6 Este 0 -- -- 58
2021-01-18 18:00:00 14.1 2 Este 11 Sudeste 0 -- -- 48
2021-01-18 17:00:00 14.9 5 Este 13 Este 0 -- -- 39
2021-01-18 16:00:00 15 5 Este 16 Sudeste 0 -- -- 45
2021-01-18 15:00:00 14.8 8 Este 17 Sudeste 0 -- -- 44
2021-01-18 14:00:00 13.8 8 Este 18 Sudeste 0 -- -- 47
2021-01-18 13:00:00 12.9 8 Este 20 Nordeste 0 -- -- 47
2021-01-18 12:00:00 11.7 9 Este 20 Nordeste 0 -- -- 47
2021-01-18 11:00:00 9.9 9 Este 20 Nordeste 0 -- -- 47
2021-01-18 10:00:00 6.9 8 Nordeste 20 Nordeste 0 -- -- 55
2021-01-18 09:00:00 5.1 6 Este 21 Este 0 -- -- 58
2021-01-18 08:00:00 4.9 10 Este 22 Nordeste 0 -- -- 61
2021-01-18 07:00:00 5.4 7 Este 17 Este 0 -- -- 57
2021-01-18 06:00:00 6 5 Este 17 Nordeste 0 -- -- 55
2021-01-18 05:00:00 6.4 11 Este 19 Este 0 -- -- 56
2021-01-18 04:00:00 6.9 9 Nordeste 14 Nordeste 0 -- -- 58
2021-01-18 03:00:00 7.4 4 Este 14 Nordeste 0 -- -- 55
2021-01-18 02:00:00 7.8 6 Este 15 Este 0 -- -- 53
2021-01-18 01:00:00 6.3 8 Este 13 Nordeste 0 -- -- 62
2021-01-18 00:00:00 6.2 3 Este 16 Este 0 -- -- 68
2021-01-17 23:00:00 6.7 6 Este 14 Nordeste 0 -- -- 71
2021-01-17 22:00:00 6.4 4 Este 14 Este 0 -- -- 75
2021-01-17 21:00:00 3.8 4 Nordeste 6 Nordeste 0 -- -- 85
2021-01-17 20:00:00 4.6 0 Calma 4 Este 0 -- -- 82
2021-01-17 19:00:00 7 3 Norte 4 Norte 0 -- -- 75
2021-01-17 18:00:00 11.5 4 Oeste 11 Oeste 0 -- -- 62
2021-01-17 17:00:00 13.8 3 Oeste 10 Oeste 0 -- -- 51
2021-01-17 16:00:00 13.5 5 Oeste 13 Oeste 0 -- -- 45
2021-01-17 15:00:00 13.4 6 Oeste 11 Noroeste 0 -- -- 52
2021-01-17 14:00:00 13 4 Sudoeste 11 Oeste 0 -- -- 54
2021-01-17 13:00:00 12.7 6 Sudoeste 12 Sudoeste 0 -- -- 60
2021-01-17 12:00:00 11.3 3 Este 7 Sudeste 0 -- -- 54
2021-01-17 11:00:00 8.6 3 Este 8 Este 0 -- -- 64
2021-01-17 10:00:00 5 5 Este 15 Este 0 -- -- 70
2021-01-17 09:00:00 3.9 8 Este 14 Este 0 -- -- 76
2021-01-17 08:00:00 4.2 10 Este 15 Nordeste 0 -- -- 74
2021-01-17 07:00:00 4 7 Este 10 Nordeste 0 -- -- 78
2021-01-17 06:00:00 4.5 5 Este 12 Este 0 -- -- 77
2021-01-17 05:00:00 4 3 Este 7 Este 0 -- -- 81
2021-01-17 04:00:00 4.3 5 Este 8 Nordeste 0 -- -- 83
2021-01-17 03:00:00 4.3 3 Este 6 Este 0 -- -- 85
2021-01-17 02:00:00 4.4 4 Este 6 Este 0 -- -- 85
2021-01-17 01:00:00 4.4 0 Calma 7 Nordeste 0 -- -- 86
2021-01-17 00:00:00 4.9 4 Nordeste 8 Este 0 -- -- 81
2021-01-16 23:00:00 5.8 5 Este 8 Este 0 -- -- 80
2021-01-16 22:00:00 5.2 3 Nordeste 8 Norte 0 -- -- 81
2021-01-16 21:00:00 5.2 0 Calma 7 Noroeste 0 -- -- 85
2021-01-16 20:00:00 6 4 Norte 5 Norte 0 -- -- 84
2021-01-16 19:00:00 7.9 0 Calma 6 Noroeste 0 -- -- 74
2021-01-16 18:00:00 10.9 3 Noroeste 10 Oeste 0 -- -- 64
2021-01-16 17:00:00 13.1 6 Oeste 9 Oeste 0 -- -- 55
2021-01-16 16:00:00 13.1 2 Norte 8 Oeste 0 -- -- 45
2021-01-16 15:00:00 12.4 6 Oeste 10 Oeste 0 -- -- 53
2021-01-16 14:00:00 12.3 5 Oeste 11 Oeste 0 -- -- 62
2021-01-16 13:00:00 10.9 4 Oeste 6 Sudoeste 0 -- -- 66
2021-01-16 12:00:00 8.6 4 Noroeste 6 Norte 0 -- -- 73
2021-01-16 11:00:00 6.1 4 Este 8 Norte 0 -- -- 76
2021-01-16 10:00:00 2.9 5 Norte 9 Noroeste 0 -- -- 91
2021-01-16 09:00:00 1 0 Calma 6 Este 0 -- -- 90
2021-01-16 08:00:00 0.8 3 Nordeste 9 Nordeste 0 -- -- 90
2021-01-16 07:00:00 0.8 0 Calma 6 Noroeste 0 -- -- 88
2021-01-16 06:00:00 0.8 2 Norte 5 Nordeste 0 -- -- 91
2021-01-16 05:00:00 1.2 4 Norte 5 Norte 0 -- -- 90
2021-01-16 04:00:00 1.9 3 Este 8 Este 0 -- -- 88
2021-01-16 03:00:00 2 0 Calma 6 Nordeste 0 -- -- 89
2021-01-16 02:00:00 3 3 Este 6 Este 0 -- -- 83
2021-01-16 01:00:00 4.1 3 Este 8 Nordeste 0 -- -- 83
2021-01-16 00:00:00 3.6 4 Este 7 Nordeste 0 -- -- 85
2021-01-15 23:00:00 2.9 3 Este 6 Este 0 -- -- 92
2021-01-15 22:00:00 2.4 0 Calma 5 Nordeste 0 -- -- 89
2021-01-15 21:00:00 2.5 4 Nordeste 5 Nordeste 0 -- -- 90
2021-01-15 20:00:00 4 0 Calma 7 Noroeste 0 -- -- 85
2021-01-15 19:00:00 6.8 2 Oeste 7 Oeste 0 -- -- 74
2021-01-15 18:00:00 9.8 6 Oeste 13 Sudoeste 0 -- -- 65
2021-01-15 17:00:00 11.8 3 Sudoeste 9 Sudoeste 0 -- -- 52
2021-01-15 16:00:00 11 6 Sudoeste 11 Sudoeste 0 -- -- 56
2021-01-15 15:00:00 11.5 6 Sudoeste 12 Sudoeste 0 -- -- 59
2021-01-15 14:00:00 10.4 8 Oeste 11 Oeste 0 -- -- 67
2021-01-15 13:00:00 10.5 5 Sudoeste 9 Sudoeste 0 -- -- 60
2021-01-15 12:00:00 8.2 3 Oeste 5 Sudoeste 0 -- -- 75
2021-01-15 11:00:00 6.5 3 Sudeste 7 Sur 0 -- -- 76
2021-01-15 10:00:00 2 0 Calma 4 Noroeste 0 -- -- 92
2021-01-15 09:00:00 1.3 2 Noroeste 6 Noroeste 0 -- -- 84
2021-01-15 08:00:00 1.4 2 Norte 6 Norte 0 -- -- 79
2021-01-15 07:00:00 2.8 5 Norte 10 Este 0 -- -- 72
2021-01-15 06:00:00 3.9 6 Este 14 Este 0 -- -- 69
2021-01-15 05:00:00 1.4 6 Nordeste 11 Nordeste 0 -- -- 86
2021-01-15 04:00:00 1.5 6 Nordeste 9 Nordeste 0 -- -- 95
2021-01-15 03:00:00 1.8 5 Nordeste 10 Este 0 -- -- 96
2021-01-15 02:00:00 1.1 3 Este 9 Nordeste 0 -- -- 96
2021-01-15 01:00:00 2.9 3 Este 12 Este 0 -- -- 94
2021-01-15 00:00:00 2.1 8 Este 11 Nordeste 0 -- -- 99
2021-01-14 23:00:00 0.6 0 Calma 4 Sudeste 0 -- -- 96
2021-01-14 22:00:00 0.9 0 Calma 8 Norte 0 -- -- 95
2021-01-14 21:00:00 1.3 4 Norte 6 Norte 0 -- -- 94
2021-01-14 20:00:00 2.8 2 Noroeste 9 Oeste 0 -- -- 88
2021-01-14 19:00:00 4.6 4 Oeste 8 Sudoeste 0 -- -- 83
2021-01-14 18:00:00 7.6 6 Oeste 9 Sudoeste 0 -- -- 74
2021-01-14 17:00:00 8.8 6 Oeste 10 Oeste 0 -- -- 70
2021-01-14 16:00:00 9.2 5 Oeste 11 Oeste 0 -- -- 68
2021-01-14 15:00:00 8.7 5 Oeste 13 Noroeste 0 -- -- 67
2021-01-14 14:00:00 7.6 8 Noroeste 13 Noroeste 0 -- -- 71
2021-01-14 13:00:00 6.7 7 Sudoeste 11 Oeste 0 -- -- 75
2021-01-14 12:00:00 5.6 4 Oeste 6 Oeste 0 -- -- 80
2021-01-14 11:00:00 4.4 3 Sudoeste 5 Nordeste 0 -- -- 82
2021-01-14 10:00:00 1.1 4 Este 7 Este 0 -- -- 93
2021-01-14 09:00:00 -0.5 2 Este 6 Este 0 -- -- 95
2021-01-14 08:00:00 -0.9 2 Este 4 Este 0 -- -- 95
2021-01-14 07:00:00 -1.2 0 Calma 5 Norte 0 -- -- 92
2021-01-14 06:00:00 -0.2 3 Nordeste 5 Nordeste 0 -- -- 93
2021-01-14 05:00:00 0.7 2 Este 7 Nordeste 0 -- -- 91
2021-01-14 04:00:00 0.8 2 Este 6 Este 0 -- -- 92
2021-01-14 03:00:00 0.5 2 Este 4 Este 0 -- -- 94
2021-01-14 02:00:00 -0.2 2 Sur 3 Sur 0 -- -- 94
2021-01-14 01:00:00 0 0 Calma 3 Nordeste 0 -- -- 91
2021-01-14 00:00:00 0.5 0 Calma 0 Calma 0 -- -- 92
2021-01-13 23:00:00 1 0 Calma 4 Sur 0 -- -- 93
2021-01-13 22:00:00 1.1 0 Calma -- -- 0 -- -- 90
2021-01-13 21:00:00 1.1 0 Calma 5 Noroeste 0 -- -- 87
2021-01-13 20:00:00 2.6 3 Noroeste 5 Noroeste 0 -- -- 84
2021-01-13 19:00:00 4.1 0 Calma 7 Sudoeste 0 -- -- 78
2021-01-13 18:00:00 7.7 6 Sudoeste 9 Oeste 0 -- -- 65
2021-01-13 17:00:00 8.7 6 Oeste 10 Oeste 0 -- -- 60
2021-01-13 16:00:00 9.2 5 Sudoeste 11 Sudoeste 0 -- -- 57
2021-01-13 15:00:00 9 4 Sudoeste 10 Oeste 0 -- -- 58
2021-01-13 14:00:00 7.7 7 Oeste 12 Sudoeste 0 -- -- 61
2021-01-13 13:00:00 6.9 5 Sudoeste 9 Sudoeste 0 -- -- 63
2021-01-13 12:00:00 5.4 4 Noroeste 8 Oeste 0 -- -- 67
2021-01-13 11:00:00 4.3 3 Sudoeste 5 Sudoeste 0 -- -- 67
2021-01-13 10:00:00 0.6 0 Calma 4 Nordeste 0 -- -- 78
2021-01-13 09:00:00 -2.4 3 Nordeste 4 Nordeste 0 -- -- 86
2021-01-13 08:00:00 -1.8 0 Calma 9 Este 0 -- -- 83
2021-01-13 07:00:00 -0.5 4 Este 8 Este 0 -- -- 79
2021-01-13 06:00:00 -0.8 4 Este 5 Este 0 -- -- 81
2021-01-13 05:00:00 0.4 0 Calma 10 Nordeste 0 -- -- 76
2021-01-13 04:00:00 -0.1 4 Este 7 Este 0 -- -- 79
2021-01-13 03:00:00 -0.5 4 Este 8 Este 0 -- -- 82
2021-01-13 02:00:00 1.1 3 Este 8 Nordeste 0 -- -- 71
2021-01-13 01:00:00 2 4 Este 11 Este 0 -- -- 65
2021-01-13 00:00:00 0.3 4 Nordeste 6 Nordeste 0 -- -- 79
2021-01-12 23:00:00 -0.4 0 Calma 4 Noroeste 0 -- -- 83
2021-01-12 22:00:00 -0.2 2 Noroeste 4 Noroeste 0 -- -- 81
2021-01-12 21:00:00 0.6 2 Noroeste 6 Noroeste 0 -- -- 79
2021-01-12 20:00:00 1.3 4 Noroeste 4 Noroeste 0 -- -- 73
2021-01-12 19:00:00 3.5 0 Calma 9 Sudoeste 0 -- -- 68
2021-01-12 18:00:00 6.8 7 Sudoeste 12 Sudoeste 0 -- -- 55
2021-01-12 17:00:00 8.4 5 Oeste 13 Oeste 0 -- -- 46
2021-01-12 16:00:00 8.8 9 Sudoeste 13 Sudoeste 0 -- -- 50
2021-01-12 15:00:00 8.5 4 Oeste 11 Oeste 0 -- -- 50
2021-01-12 14:00:00 7.9 5 Oeste 9 Oeste 0 -- -- 48
2021-01-12 13:00:00 6.8 3 Sudoeste 6 Sudoeste 0 -- -- 48
2021-01-12 12:00:00 4.8 2 Oeste 5 Noroeste 0 -- -- 54
2021-01-12 11:00:00 3 0 Calma 8 Nordeste 0 -- -- 54
2021-01-12 10:00:00 -0.5 6 Este 8 Este 0 -- -- 70
2021-01-12 09:00:00 -2.4 2 Este 9 Nordeste 0 -- -- 76
2021-01-12 08:00:00 -3 3 Este 6 Este 0 -- -- 81
2021-01-12 07:00:00 -3.1 0 Calma 4 Este 0 -- -- 79
2021-01-12 06:00:00 -2.9 3 Nordeste 4 Nordeste 0 -- -- 76
2021-01-12 05:00:00 -3.3 0 Calma 4 Este 0 -- -- 79
2021-01-12 04:00:00 -2.7 0 Calma 4 Norte 0 -- -- 77
2021-01-12 03:00:00 -1.9 2 Nordeste 6 Norte 0 -- -- 75
2021-01-12 02:00:00 -0.8 3 Este 8 Nordeste 0 -- -- 68
2021-01-12 01:00:00 -0.6 3 Este 9 Este 0 -- -- 66
2021-01-12 00:00:00 -0.3 5 Este 9 Este 0 -- -- 61
2021-01-11 23:00:00 -1.3 2 Nordeste 8 Este 0 -- -- 70
2021-01-11 22:00:00 -0.2 4 Este 10 Este 0 -- -- 63
2021-01-11 21:00:00 -0.3 3 Sudeste 8 Este 0 -- -- 69
2021-01-11 20:00:00 1 4 Sudeste 7 Sudeste 0 -- -- 61
2021-01-11 19:00:00 3 0 Calma 5 Nordeste 0 -- -- 53
2021-01-11 18:00:00 6.5 0 Calma 14 Nordeste 0 -- -- 41
2021-01-11 17:00:00 7.4 8 Nordeste 22 Norte 0 -- -- 36
2021-01-11 16:00:00 7.9 8 Nordeste 20 Nordeste 0 -- -- 36
2021-01-11 15:00:00 7.7 7 Nordeste 23 Nordeste 0 -- -- 40
2021-01-11 14:00:00 7.3 9 Nordeste 19 Nordeste 0 -- -- 46
2021-01-11 13:00:00 6.8 8 Este 18 Sudeste 0 -- -- 52
2021-01-11 12:00:00 5.8 7 Este 21 Este 0 -- -- 53
2021-01-11 11:00:00 3.5 6 Este 17 Nordeste 0 -- -- 65
2021-01-11 10:00:00 -0.4 0 Calma 6 Norte 0 -- -- 88
2021-01-11 09:00:00 -1 4 Nordeste 7 Noroeste 0 -- -- 85
2021-01-11 08:00:00 -0.2 3 Este 9 Este 0 -- -- 83
2021-01-11 07:00:00 0.5 3 Nordeste 16 Nordeste 0 -- -- 80
2021-01-11 06:00:00 1 8 Nordeste 16 Este 0 -- -- 80
2021-01-11 05:00:00 1.2 8 Nordeste 15 Este 0 -- -- 80
2021-01-11 04:00:00 1.7 9 Nordeste 15 Este 0 -- -- 78
2021-01-11 03:00:00 1.3 3 Este 12 Este 0 -- -- 81
2021-01-11 02:00:00 1.7 4 Nordeste 14 Este 0 -- -- 78
2021-01-11 01:00:00 1.8 5 Este 17 Nordeste 0 -- -- 75
2021-01-11 00:00:00 0.8 8 Este 15 Nordeste 0 -- -- 79
2021-01-10 23:00:00 1.9 5 Este 21 Este 0 -- -- 73
2021-01-10 22:00:00 2.1 10 Nordeste 25 Nordeste 0 -- -- 72
2021-01-10 21:00:00 2.5 16 Nordeste 28 Nordeste 0 -- -- 70
2021-01-10 20:00:00 2.3 13 Nordeste 25 Nordeste 0 -- -- 72
2021-01-10 19:00:00 2.7 12 Nordeste 26 Nordeste 0 -- -- 71
2021-01-10 18:00:00 3.9 9 Nordeste 30 Nordeste 0 -- -- 68
2021-01-10 17:00:00 5.4 16 Nordeste 31 Nordeste 0 -- -- 62
2021-01-10 16:00:00 6 18 Nordeste 34 Nordeste 0 -- -- 61
2021-01-10 15:00:00 6.7 15 Nordeste 33 Nordeste 0 -- -- 63
2021-01-10 14:00:00 6.9 12 Nordeste 31 Nordeste 0 -- -- 63
2021-01-10 13:00:00 6 13 Nordeste 30 Nordeste 0.2 -- -- 68
2021-01-10 12:00:00 5.1 13 Nordeste 27 Nordeste 0 -- -- 69
2021-01-10 11:00:00 2.9 9 Nordeste 19 Nordeste 0 -- -- 84
2021-01-10 10:00:00 1 6 Nordeste 13 Nordeste 0 -- -- 90
2021-01-10 09:00:00 0.8 3 Este 21 Nordeste 0 -- -- 90
2021-01-10 08:00:00 0.5 5 Este 14 Este 0 -- -- 93
2021-01-10 07:00:00 0.2 4 Este 12 Este 0 -- -- 94
2021-01-10 06:00:00 0.7 4 Este 17 Este 0 -- -- 92
2021-01-10 05:00:00 1 8 Este 21 Este 0 -- -- 93
2021-01-10 04:00:00 1 4 Este 16 Este 0 -- -- 96
2021-01-10 03:00:00 0.8 5 Este 15 Este 0 -- -- 97
2021-01-10 02:00:00 0.7 5 Este 18 Nordeste 0 -- -- 98
2021-01-10 01:00:00 1 7 Este 20 Este 0 -- -- 98
2021-01-10 00:00:00 1 10 Nordeste 18 Nordeste 0 -- -- 98
2021-01-09 23:00:00 0.9 6 Este 16 Sudeste 0 -- -- 99
2021-01-09 22:00:00 1 3 Este 9 Este 0 -- -- 99
2021-01-09 21:00:00 1 3 Este 9 Sudeste 0 -- -- 98
2021-01-09 20:00:00 1 0 Calma 8 Sur 0 -- -- 98
2021-01-09 19:00:00 0.8 2 Sur 13 Sudoeste 0.2 -- -- 98
2021-01-09 18:00:00 0.6 4 Sur 12 Sudoeste 0.4 -- -- 97
2021-01-09 17:00:00 1.8 3 Sudeste 11 Este 0.4 -- -- 96
2021-01-09 16:00:00 2.1 4 Sudeste 10 Sudeste 0 -- -- 96
2021-01-09 15:00:00 2.1 2 Sudeste 12 Sudeste 0.4 -- -- 97
2021-01-09 14:00:00 1.7 5 Este 14 Este 0.4 -- -- 97
2021-01-09 13:00:00 1.6 4 Sudeste 9 Nordeste 0.2 -- -- 98
2021-01-09 12:00:00 1 5 Nordeste 10 Nordeste 0.8 -- -- 99
2021-01-09 11:00:00 0.5 4 Nordeste 9 Nordeste 0.6 -- -- 98
2021-01-09 10:00:00 0.3 0 Calma 3 Nordeste 0 -- -- 98
2021-01-09 09:00:00 0.2 0 Calma 3 Sudeste 0 -- -- 98
2021-01-09 08:00:00 0.3 0 Calma 3 Sur 0 -- -- 98
2021-01-09 07:00:00 0.4 0 Calma 4 Sudeste 0.2 -- -- 98
2021-01-09 06:00:00 0.7 2 Sudeste 4 Sudeste 0.2 -- -- 97
2021-01-09 05:00:00 0.8 0 Calma 4 Este 0.2 -- -- 97
2021-01-09 04:00:00 1 4 Nordeste 17 Nordeste 0.6 -- -- 96
2021-01-09 03:00:00 0.9 11 Nordeste 25 Este 0.2 -- -- 96
2021-01-09 02:00:00 0.9 13 Nordeste 33 Nordeste 0.2 -- -- 95
2021-01-09 01:00:00 1 16 Nordeste 32 Nordeste 0.4 -- -- 96
2021-01-09 00:00:00 1 17 Nordeste 36 Nordeste 0.6 -- -- 96
2021-01-08 23:00:00 1.1 18 Nordeste 36 Nordeste 0.6 -- -- 96
2021-01-08 22:00:00 1 16 Nordeste 36 Este 1.4 -- -- 96
2021-01-08 21:00:00 1.3 20 Nordeste 37 Nordeste 1.6 -- -- 96
2021-01-08 20:00:00 1 18 Nordeste 37 Nordeste 1.6 -- -- 97
2021-01-08 19:00:00 0.7 16 Nordeste 37 Nordeste 1.8 -- -- 97
2021-01-08 18:00:00 0.6 16 Nordeste 35 Nordeste 1.4 -- -- 97
2021-01-08 17:00:00 1 16 Nordeste 33 Nordeste 2.4 -- -- 97
2021-01-08 16:00:00 1 18 Nordeste 39 Este 2.2 -- -- 96
2021-01-08 15:00:00 1.9 21 Nordeste 37 Nordeste 1 -- -- 95
2021-01-08 14:00:00 2.4 18 Este 36 Nordeste 0.4 -- -- 95
2021-01-08 13:00:00 1.9 16 Este 37 Nordeste 0.6 -- -- 96
2021-01-08 12:00:00 1.5 14 Nordeste 32 Este 1 -- -- 95
2021-01-08 11:00:00 1.8 14 Este 39 Nordeste 0.2 -- -- 92
2021-01-08 10:00:00 2.3 13 Este 31 Este 0 -- -- 86
2021-01-08 09:00:00 2.7 13 Este 28 Nordeste 0 -- -- 79
2021-01-08 08:00:00 2.4 9 Este 28 Sudeste 0 -- -- 80
2021-01-08 07:00:00 2.4 13 Este 39 Este 0 -- -- 81
2021-01-08 06:00:00 2.5 14 Este 32 Este 0 -- -- 80
2021-01-08 05:00:00 2.4 13 Este 31 Nordeste 0 -- -- 80
2021-01-08 04:00:00 2 12 Nordeste 29 Este 0 -- -- 81
2021-01-08 03:00:00 1.7 11 Este 24 Este 0 -- -- 83
2021-01-08 02:00:00 1.5 10 Este 22 Este 0 -- -- 84
2021-01-08 01:00:00 1.3 10 Este 21 Este 0 -- -- 84
2021-01-08 00:00:00 1.2 12 Nordeste 25 Este 0 -- -- 84
2021-01-07 23:00:00 1 8 Este 18 Este 0 -- -- 85
2021-01-07 22:00:00 1.1 7 Este 22 Este 0 -- -- 85
2021-01-07 21:00:00 1.7 9 Este 25 Este 0 -- -- 83
2021-01-07 20:00:00 1.8 10 Este 29 Este 0 -- -- 81
2021-01-07 19:00:00 1.8 11 Nordeste 26 Nordeste 0 -- -- 83
2021-01-07 18:00:00 2.5 12 Nordeste 28 Este 0 -- -- 81
2021-01-07 17:00:00 3.4 13 Nordeste 31 Nordeste 0 -- -- 79
2021-01-07 16:00:00 4.5 9 Este 25 Este 0 -- -- 76
2021-01-07 15:00:00 4 10 Nordeste 31 Nordeste 0 -- -- 81
2021-01-07 14:00:00 3.7 13 Este 28 Nordeste 0 -- -- 82
2021-01-07 13:00:00 3.5 14 Este 33 Nordeste 0 -- -- 86
2021-01-07 12:00:00 2.9 12 Este 33 Nordeste 0 -- -- 89
2021-01-07 11:00:00 2.4 13 Este 31 Nordeste 0 -- -- 90
2021-01-07 10:00:00 1.8 13 Este 30 Este 0.2 -- -- 91
2021-01-07 09:00:00 2.1 9 Este 24 Este 0 -- -- 86
2021-01-07 08:00:00 2.6 7 Este 20 Nordeste 0 -- -- 74
2021-01-07 07:00:00 2.8 6 Este 21 Este 0 -- -- 70
2021-01-07 06:00:00 3.6 8 Este 17 Nordeste 0 -- -- 63
2021-01-07 05:00:00 3.4 7 Nordeste 18 Este 0 -- -- 60
2021-01-07 04:00:00 3.4 8 Este 19 Este 0 -- -- 60
2021-01-07 03:00:00 3.4 8 Este 18 Este 0 -- -- 60
2021-01-07 02:00:00 3.5 7 Nordeste 18 Nordeste 0 -- -- 59
2021-01-07 01:00:00 3.8 8 Este 18 Nordeste 0 -- -- 57
2021-01-07 00:00:00 4.2 9 Este 23 Este 0 -- -- 55
2021-01-06 23:00:00 3.9 8 Este 23 Este 0 -- -- 56
2021-01-06 22:00:00 3.9 10 Este 25 Nordeste 0 -- -- 57
2021-01-06 21:00:00 3.9 10 Este 23 Nordeste 0 -- -- 59
2021-01-06 20:00:00 4.1 9 Este 25 Este 0 -- -- 61
2021-01-06 19:00:00 4.3 7 Este 17 Nordeste 0 -- -- 64
2021-01-06 18:00:00 4.8 6 Este 13 Nordeste 0 -- -- 61
2021-01-06 17:00:00 5.8 4 Este 18 Sudeste 0 -- -- 57
2021-01-06 16:00:00 5.9 6 Este 22 Este 0 -- -- 55
2021-01-06 15:00:00 6.9 10 Este 25 Sudeste 0 -- -- 48
2021-01-06 14:00:00 6 10 Este 25 Nordeste 0 -- -- 48
2021-01-06 13:00:00 4.8 8 Este 22 Nordeste 0 -- -- 58
2021-01-06 12:00:00 3.1 6 Este 18 Nordeste 0 -- -- 64
2021-01-06 11:00:00 0.3 4 Este 13 Este 0 -- -- 74
2021-01-06 10:00:00 -1.2 4 Este 13 Este 0 -- -- 78
2021-01-06 09:00:00 -1.3 4 Este 18 Nordeste 0 -- -- 77
2021-01-06 08:00:00 -1.3 5 Este 14 Nordeste 0 -- -- 77
2021-01-06 07:00:00 -1.4 5 Este 13 Este 0 -- -- 79
2021-01-06 06:00:00 -1.7 5 Este 17 Nordeste 0 -- -- 85
2021-01-06 05:00:00 -1.5 4 Este 12 Nordeste 0 -- -- 85
2021-01-06 04:00:00 0.1 9 Este 15 Este 0 -- -- 79
2021-01-06 03:00:00 -0.3 6 Este 13 Este 0 -- -- 81
2021-01-06 02:00:00 0.2 6 Este 15 Este 0 -- -- 78
2021-01-06 01:00:00 0.1 8 Este 15 Nordeste 0 -- -- 79
2021-01-06 00:00:00 -0.2 3 Este 9 Este 0 -- -- 83
2021-01-05 23:00:00 0 4 Este 11 Nordeste 0 -- -- 84
2021-01-05 22:00:00 0.6 4 Nordeste 11 Nordeste 0 -- -- 82
2021-01-05 21:00:00 0.1 5 Nordeste 9 Nordeste 0 -- -- 88
2021-01-05 20:00:00 -0.2 2 Nordeste 4 Este 0 -- -- 90
2021-01-05 19:00:00 1.4 0 Calma 6 Este 0 -- -- 84
2021-01-05 18:00:00 5.1 3 Este 13 Sudeste 0 -- -- 72
2021-01-05 17:00:00 6.3 5 Este 17 Sudeste 0 -- -- 64
2021-01-05 16:00:00 6.9 5 Sudeste 14 Este 0 -- -- 63
2021-01-05 15:00:00 6.2 3 Este 14 Este 0 -- -- 71
2021-01-05 14:00:00 4.8 6 Este 16 Este 0 -- -- 95
2021-01-05 13:00:00 2.1 9 Este 18 Sudeste 0 -- -- 100
2021-01-05 12:00:00 0.6 8 Este 17 Nordeste 0.2 -- -- 100
2021-01-05 11:00:00 -0.6 0 Calma -- -- 0 -- -- 100
2021-01-05 10:00:00 -1.4 0 Calma -- -- 0 -- -- 100
2021-01-05 09:00:00 -2.1 0 Calma -- -- 0 -- -- 99
2021-01-05 08:00:00 -0.7 0 Calma -- -- 0 -- -- 99
2021-01-05 07:00:00 -0.4 0 Calma -- -- 0 -- -- 100
2021-01-05 06:00:00 -0.6 0 Calma -- -- 0 -- -- 100
2021-01-05 05:00:00 -0.9 0 Calma 14 Nordeste 0 -- -- 99
2021-01-05 04:00:00 0.2 9 Este 14 Este 0 -- -- 99
2021-01-05 03:00:00 0.3 4 Este 12 Este 0 -- -- 99
2021-01-05 02:00:00 -0.1 4 Este 12 Este 0 -- -- 99
2021-01-05 01:00:00 -0.3 8 Este 11 Nordeste 0 -- -- 99
2021-01-05 00:00:00 0.2 3 Este 5 Este 0 -- -- 100
2021-01-04 23:00:00 -0.3 0 Calma 3 Este 0 -- -- 98
2021-01-04 22:00:00 0.4 0 Calma 3 Sudoeste 0 -- -- 99
2021-01-04 21:00:00 0.4 0 Calma 3 Nordeste 0 -- -- 97
2021-01-04 20:00:00 2.1 0 Calma 10 Sudoeste 0 -- -- 98
2021-01-04 19:00:00 2.7 9 Sudoeste 13 Sudoeste 0 -- -- 97
2021-01-04 18:00:00 3.4 3 Sudoeste 6 Sur 0 -- -- 97
2021-01-04 17:00:00 3.4 4 Sudoeste 9 Oeste 0 -- -- 98
2021-01-04 16:00:00 3 6 Oeste 13 Oeste 0 -- -- 98
2021-01-04 15:00:00 2.7 8 Oeste 15 Oeste 0 -- -- 98
2021-01-04 14:00:00 2.4 6 Oeste 14 Sudoeste 0 -- -- 98
2021-01-04 13:00:00 1.6 9 Sudoeste 13 Sudoeste 0 -- -- 98
2021-01-04 12:00:00 1.3 6 Sudoeste 10 Sudoeste 0 -- -- 98
2021-01-04 11:00:00 0.7 3 Sudoeste 6 Sur 0 -- -- 98
2021-01-04 10:00:00 -0.1 0 Calma 7 Sur 0 -- -- 97
2021-01-04 09:00:00 -0.6 3 Noroeste 6 Sudoeste 0 -- -- 97
2021-01-04 08:00:00 -0.3 0 Calma 10 Oeste 0 -- -- 96
2021-01-04 07:00:00 0.1 6 Oeste 10 Oeste 0 -- -- 97
2021-01-04 06:00:00 -0.1 4 Oeste 8 Oeste 0 -- -- 97
2021-01-04 05:00:00 -0.2 5 Noroeste 12 Oeste 0 -- -- 97
2021-01-04 04:00:00 -0.4 6 Oeste 15 Oeste 0 -- -- 96
2021-01-04 03:00:00 -0.6 8 Oeste 13 Oeste 0 -- -- 95
2021-01-04 02:00:00 -0.2 3 Sur 14 Noroeste 0 -- -- 94
2021-01-04 01:00:00 -0.8 6 Noroeste 9 Noroeste 0 -- -- 97
2021-01-04 00:00:00 -0.9 2 Sudoeste 5 Sur 0 -- -- 92
2021-01-03 23:00:00 1.2 3 Sur 18 Oeste 0 -- -- 91
2021-01-03 22:00:00 1.8 14 Oeste 19 Sudoeste 0 -- -- 87
2021-01-03 21:00:00 2.3 10 Sudoeste 20 Sudoeste 0 -- -- 82
2021-01-03 20:00:00 2.9 9 Oeste 20 Noroeste 0 -- -- 78
2021-01-03 19:00:00 3.8 12 Oeste 18 Oeste 0 -- -- 74
2021-01-03 18:00:00 5.2 14 Oeste 26 Oeste 0 -- -- 67
2021-01-03 17:00:00 6.1 17 Sudoeste 29 Sudoeste 0 -- -- 69
2021-01-03 16:00:00 6.1 20 Sudoeste 29 Sudoeste 0 -- -- 71
2021-01-03 15:00:00 5.9 16 Sudoeste 25 Sudoeste 0 -- -- 71
2021-01-03 14:00:00 4.4 15 Oeste 21 Oeste 0 -- -- 77
2021-01-03 13:00:00 3.1 12 Oeste 17 Sudoeste 0 -- -- 79
2021-01-03 12:00:00 2.6 6 Sudoeste 9 Sudoeste 0 -- -- 81
2021-01-03 11:00:00 0.5 6 Sudoeste 8 Sudoeste 0 -- -- 88
2021-01-03 10:00:00 -2.1 6 Sudoeste 9 Sudoeste 0 -- -- 96
2021-01-03 09:00:00 -3.4 4 Sudoeste 6 Sur 0 -- -- 94
2021-01-03 08:00:00 -3.3 0 Calma 5 Este 0 -- -- 90
2021-01-03 07:00:00 -2.2 5 Sudoeste 8 Sur 0 -- -- 89
2021-01-03 06:00:00 -2.9 0 Calma 5 Noroeste 0 -- -- 89
2021-01-03 05:00:00 -2.5 0 Calma 5 Sur 0 -- -- 87
2021-01-03 04:00:00 -2.2 3 Oeste 6 Sudoeste 0 -- -- 79
2021-01-03 03:00:00 -0.8 4 Noroeste 10 Oeste 0 -- -- 74
2021-01-03 02:00:00 -1.5 3 Oeste 9 Noroeste 0 -- -- 78
2021-01-03 01:00:00 0.3 4 Noroeste 10 Noroeste 0 -- -- 66
2021-01-03 00:00:00 -1.5 3 Noroeste 6 Noroeste 0 -- -- 80
2021-01-02 23:00:00 -0.6 3 Norte 8 Norte 0 -- -- 73
2021-01-02 22:00:00 1.4 8 Norte 12 Norte 0 -- -- 60
2021-01-02 21:00:00 2.2 5 Nordeste 20 Noroeste 0 -- -- 60
2021-01-02 20:00:00 2.2 7 Noroeste 12 Noroeste 0 -- -- 62
2021-01-02 19:00:00 2.7 5 Norte 12 Norte 0 -- -- 64
2021-01-02 18:00:00 5 6 Noroeste 24 Oeste 0 -- -- 56
2021-01-02 17:00:00 6.5 7 Noroeste 20 Oeste 0 -- -- 54
2021-01-02 16:00:00 6.6 11 Noroeste 22 Oeste 0 -- -- 54
2021-01-02 15:00:00 6.1 13 Oeste 27 Noroeste 0 -- -- 60
2021-01-02 14:00:00 5.6 13 Noroeste 22 Oeste 0 -- -- 59